Startpagina
METAR-TAF:

METAR-TAF

Vliegvelden :

Vliegbasis Kleine-Brogel

Peer, België

breedte: 51-10N, lengte: 005-28E, hoogte: 55 m

Actueel weer

Dit bericht is 15 minuten geleden gemaakt, om 19:55 UTC
Wind 1 kt uit variabele richting
Temperatuur 13°C
Vochtigheid 77%
Druk 1015 hPa
Zicht 10 km of meer
Weinig wolken op 12000 ft

METAR: EBBL 151955Z VRB01KT 9999 FEW120 13/09 Q1015 BLU BLU

Tijdstip: 22:10 (20:10 UTC)

Verwachting

Dit bericht is 4 uur en het 29 minuten geleden gemaakt, om 15:41 UTC
Verwachting geldig van 15 om 19 UTC tot 16 om 07 UTC
Wind 4 kt uit het zuiden
Zicht 10 km of meer
Weinig wolken op 12000 ft
Wijzigt naar
van 16 om 03 UTC tot 16 om 05 UTC
Zicht: 7000 m

TAF: EBBL 151541Z 1519/1607 19004KT 9999 FEW120 BECMG 1603/1605 7000

Waarnemingen en weersverwachtingen van meer dan 4000 vliegvelden (METAR en TAF).

De beschikbare stations zijn de gele en rode punten op de kaart.

Ga met uw muis naar het station om de naam te zien.

Klik dan om waarnemingen en weersverwachtingen te zien.

kaart wijzigen: klik op de groene knoppen met een zwart kruis om in te zoomen, op de groene knop met een streepje om uit te zoomen of op de groene pijlen voor aangrenzende kaarten.


METAR-TAF: